Orlando, FL

2:27 PM EDT on July 24, 2016 (GMT -0400)
WFTV, Channel 9 | | Change Station

Elev 92 ft 28.54 °N, 81.37 °W | Updated 2 seconds ago

Mostly Cloudy
Mostly Cloudy
92.3 °F
Feels Like 96 °F
N
7.2
Wind Variable Wind from ESE
Gusts 7.4 mph

Today
High -- | Low -- °F
--% Chance of Precip.
Yesterday
High -- | Low -- °F
Precip. -- in
Pressure 30.04 in
Visibility 10.0 miles
Clouds Scattered Clouds 5500 ft
Scattered Clouds 7000 ft
Mostly Cloudy 8500 ft
Heat Index 96 °F
Dew Point 67 °F
Humidity 44%
Rainfall 0.00 in
Snow Depth Not available.
6:42 AM 8:20 PM
Waning Gibbous, 74% visible
METAR KORL 241753Z VRB03KT 10SM SCT055 SCT070 BKN085 33/20 A3004 RMK AO2 SLP173 T03280200 10333 20261 58009
Pressure 30.04 in
Visibility 10.0 miles
Clouds Scattered Clouds 5500 ft
Scattered Clouds 7000 ft
Mostly Cloudy 8500 ft
Heat Index 96 °F
Dew Point 67 °F
Humidity 44%
Rainfall 0.00 in
Snow Depth Not available.
6:42 AM 8:20 PM
Waning Gibbous, 74% visible
METAR KORL 241753Z VRB03KT 10SM SCT055 SCT070 BKN085 33/20 A3004 RMK AO2 SLP173 T03280200 10333 20261 58009

10-Day Weather Forecast

Almanac

Astronomy

Jul. 24, 2016 Rise Set
Actual Time
Civil Twilight
Nautical Twilight
Astronomical Twilight
Moon
Length of Visible Light
Length of Day
Tomorrow will be .
, % of the Moon is Illuminated

Today's Extremes

State Highs State Lows

Community

WunderPhotos

Upload Photos

1,927,151 photos uploaded!

WunderBlog® & News

Nearby

Air Quality

  Air Quality AQ Index Pollutant
Not available.

Snow Depth

Station Depth Elevation

Earthquake Activity

City Distance Mag. Time & Date
Minimum magnitude displayed is 2.5.

Coastal Water Temperatures

Place Temperature

Stations

Nearby Weather Stations

Station Location Temp. Windchill Dew Point Humidity Wind Precip. Elev Updated Type
                   

Watches & Warnings

There are currently no watches in effect.